| time (UTC) | temp F | wind direction | speed MPH | gust MPH | rain 1hr in | rain 24hr in | rain mn in | humidity % | barometer mb |
| 20260901115525 | 55 | 174 | 1.0 | 12.0 | 0.00 | 0.00 | 0.00 | 83 | 1017.0 |
| 20260901115029 | 55 | 243 | 3.0 | 12.0 | 0.00 | 0.00 | 0.00 | 83 | 1016.9 |
| 20260901114529 | 54 | 146 | 2.0 | 13.0 | 0.00 | 0.00 | 0.00 | 83 | 1016.8 |
| 20260901114025 | 54 | 232 | 3.0 | 13.0 | 0.00 | 0.00 | 0.00 | 83 | 1016.9 |
| 20260901113527 | 54 | 189 | 6.0 | 17.0 | 0.00 | 0.00 | 0.00 | 83 | 1017.1 |
| 20260901113023 | 54 | 187 | 7.0 | 17.0 | 0.00 | 0.00 | 0.00 | 83 | 1017.1 |
| 20260901112519 | 54 | 180 | 6.0 | 17.0 | 0.00 | 0.00 | 0.00 | 83 | 1017.2 |
| 20260901112019 | 54 | 203 | 5.0 | 14.0 | 0.00 | 0.00 | 0.00 | 84 | 1017.3 |
| 20260901111521 | 54 | 218 | 6.0 | 16.0 | 0.00 | 0.00 | 0.00 | 84 | 1017.4 |
| 20260901111018 | 54 | 195 | 5.0 | 14.0 | 0.00 | 0.00 | 0.00 | 83 | 1017.4 |
| 20260901110519 | 54 | 183 | 7.0 | 16.0 | 0.00 | 0.00 | 0.00 | 83 | 1017.4 |
| 20260901110016 | 54 | 172 | 6.0 | 16.0 | 0.00 | 0.00 | 0.00 | 83 | 1017.5 |
| 20260901105516 | 54 | 211 | 6.0 | 16.0 | 0.00 | 0.00 | 0.00 | 83 | 1017.5 |
| 20260901105014 | 55 | 193 | 6.0 | 16.0 | 0.00 | 0.00 | 0.00 | 83 | 1017.4 |
| 20260901104514 | 55 | 235 | 4.0 | 12.0 | 0.00 | 0.00 | 0.00 | 84 | 1017.4 |
| 20260901104018 | 55 | 215 | 4.0 | 14.0 | 0.00 | 0.00 | 0.00 | 83 | 1017.3 |
| 20260901103512 | 55 | 244 | 5.0 | 18.0 | 0.00 | 0.00 | 0.00 | 82 | 1017.2 |
| 20260901103013 | 55 | 253 | 6.0 | 18.0 | 0.00 | 0.00 | 0.00 | 82 | 1017.2 |
| 20260901102515 | 55 | 295 | 3.0 | 10.0 | 0.00 | 0.00 | 0.00 | 82 | 1017.2 |
| 20260901102014 | 55 | 296 | 3.0 | 8.0 | 0.00 | 0.00 | 0.00 | 83 | 1017.1 |
| 20260901101512 | 54 | 184 | 1.0 | 10.0 | 0.00 | 0.00 | 0.00 | 83 | 1017.1 |
| 20260901101011 | 54 | 192 | 4.0 | 12.0 | 0.00 | 0.00 | 0.00 | 84 | 1017.1 |
| 20260901100514 | 54 | 216 | 5.0 | 12.0 | 0.00 | 0.00 | 0.00 | 82 | 1017.0 |
| 20260901100009 | 54 | 192 | 6.0 | 15.0 | 0.00 | 0.00 | 0.00 | 82 | 1016.9 |
| 20260901095508 | 54 | 202 | 6.0 | 14.0 | 0.00 | 0.00 | 0.00 | 82 | 1016.9 |
| 20260901095013 | 54 | 187 | 6.0 | 15.0 | 0.00 | 0.00 | 0.00 | 82 | 1016.9 |
| 20260901094507 | 54 | 222 | 3.0 | 14.0 | 0.00 | 0.00 | 0.00 | 83 | 1016.8 |
| 20260901094005 | 54 | 226 | 5.0 | 12.0 | 0.00 | 0.00 | 0.00 | 82 | 1016.7 |
| 20260901093508 | 54 | 191 | 3.0 | 13.0 | 0.00 | 0.00 | 0.00 | 82 | 1016.8 |
| 20260901093016 | 54 | 213 | 3.0 | 13.0 | 0.00 | 0.00 | 0.00 | 82 | 1016.8 |
| 20260901092506 | 54 | 207 | 6.0 | 13.0 | 0.00 | 0.00 | 0.00 | 81 | 1016.8 |
| 20260901092005 | 54 | 240 | 5.0 | 14.0 | 0.00 | 0.00 | 0.00 | 82 | 1016.7 |
| 20260901091504 | 54 | 205 | 5.0 | 14.0 | 0.00 | 0.00 | 0.00 | 81 | 1016.7 |
| 20260901091005 | 54 | 190 | 4.0 | 12.0 | 0.00 | 0.00 | 0.00 | 81 | 1016.7 |
| 20260901090502 | 54 | 217 | 3.0 | 12.0 | 0.00 | 0.00 | 0.00 | 81 | 1016.6 |